sensor_id;sensor_type;location;lat;lon;timestamp;P1;durP1;ratioP1;P2;durP2;ratioP2
55112;SDS011;41006;50.920;3.456;2022-07-04T00:00:24;5.03;;;1.98;;
55112;SDS011;41006;50.920;3.456;2022-07-04T00:01:00;9.27;;;2.08;;
55112;SDS011;41006;50.920;3.456;2022-07-04T00:01:32;8.60;;;2.25;;
55112;SDS011;41006;50.920;3.456;2022-07-04T00:02:03;6.50;;;1.95;;
55112;SDS011;41006;50.920;3.456;2022-07-04T00:02:41;9.18;;;1.73;;
55112;SDS011;41006;50.920;3.456;2022-07-04T00:03:15;5.35;;;2.40;;
55112;SDS011;41006;50.920;3.456;2022-07-04T00:03:46;8.18;;;2.60;;
55112;SDS011;41006;50.920;3.456;2022-07-04T00:04:19;5.85;;;2.00;;
55112;SDS011;41006;50.920;3.456;2022-07-04T00:04:51;3.88;;;2.28;;
55112;SDS011;41006;50.920;3.456;2022-07-04T00:05:27;7.70;;;1.95;;
55112;SDS011;41006;50.920;3.456;2022-07-04T00:06:01;2.88;;;1.42;;
55112;SDS011;41006;50.920;3.456;2022-07-04T00:06:34;8.05;;;2.20;;
55112;SDS011;41006;50.920;3.456;2022-07-04T00:07:07;4.32;;;1.40;;
55112;SDS011;41006;50.920;3.456;2022-07-04T00:07:41;6.68;;;1.85;;
55112;SDS011;41006;50.920;3.456;2022-07-04T00:08:15;5.45;;;1.23;;
55112;SDS011;41006;50.920;3.456;2022-07-04T00:08:48;3.25;;;1.40;;
55112;SDS011;41006;50.920;3.456;2022-07-04T00:09:21;8.77;;;1.52;;
55112;SDS011;41006;50.920;3.456;2022-07-04T00:09:51;3.20;;;1.10;;
55112;SDS011;41006;50.920;3.456;2022-07-04T00:10:22;3.67;;;1.42;;
55112;SDS011;41006;50.920;3.456;2022-07-04T00:10:53;4.53;;;1.05;;
55112;SDS011;41006;50.920;3.456;2022-07-04T00:11:23;3.85;;;0.98;;
55112;SDS011;41006;50.920;3.456;2022-07-04T00:11:58;5.82;;;1.00;;
55112;SDS011;41006;50.920;3.456;2022-07-04T00:12:33;4.05;;;0.90;;
55112;SDS011;41006;50.920;3.456;2022-07-04T00:13:06;4.55;;;1.15;;
55112;SDS011;41006;50.920;3.456;2022-07-04T00:13:37;6.90;;;1.40;;
55112;SDS011;41006;50.920;3.456;2022-07-04T00:14:07;5.88;;;1.20;;
55112;SDS011;41006;50.920;3.456;2022-07-04T00:14:40;5.38;;;1.73;;
55112;SDS011;41006;50.920;3.456;2022-07-04T00:15:13;3.95;;;1.27;;
55112;SDS011;41006;50.920;3.456;2022-07-04T00:15:46;3.40;;;1.08;;
55112;SDS011;41006;50.920;3.456;2022-07-04T00:16:16;3.45;;;1.10;;
55112;SDS011;41006;50.920;3.456;2022-07-04T00:16:46;8.52;;;1.50;;
55112;SDS011;41006;50.920;3.456;2022-07-04T00:17:19;5.20;;;1.45;;
55112;SDS011;41006;50.920;3.456;2022-07-04T00:17:49;7.80;;;1.42;;
55112;SDS011;41006;50.920;3.456;2022-07-04T00:18:20;7.60;;;1.85;;
55112;SDS011;41006;50.920;3.456;2022-07-04T00:18:53;4.22;;;1.13;;
55112;SDS011;41006;50.920;3.456;2022-07-04T00:19:23;4.40;;;1.38;;
55112;SDS011;41006;50.920;3.456;2022-07-04T00:19:54;6.32;;;1.63;;
55112;SDS011;41006;50.920;3.456;2022-07-04T00:20:26;2.30;;;0.90;;
55112;SDS011;41006;50.920;3.456;2022-07-04T00:20:57;4.45;;;1.13;;
55112;SDS011;41006;50.920;3.456;2022-07-04T00:21:30;5.78;;;1.40;;
55112;SDS011;41006;50.920;3.456;2022-07-04T00:22:03;8.95;;;1.40;;
55112;SDS011;41006;50.920;3.456;2022-07-04T00:22:36;7.50;;;1.38;;
55112;SDS011;41006;50.920;3.456;2022-07-04T00:23:07;6.05;;;1.88;;
55112;SDS011;41006;50.920;3.456;2022-07-04T00:23:43;6.25;;;1.40;;
55112;SDS011;41006;50.920;3.456;2022-07-04T00:24:13;6.13;;;1.63;;
55112;SDS011;41006;50.920;3.456;2022-07-04T00:24:47;4.80;;;1.48;;
55112;SDS011;41006;50.920;3.456;2022-07-04T00:25:20;9.15;;;1.67;;
55112;SDS011;41006;50.920;3.456;2022-07-04T00:25:53;7.85;;;1.73;;
55112;SDS011;41006;50.920;3.456;2022-07-04T00:26:26;3.55;;;1.77;;
55112;SDS011;41006;50.920;3.456;2022-07-04T00:26:58;9.05;;;1.58;;
55112;SDS011;41006;50.920;3.456;2022-07-04T00:27:32;6.75;;;2.00;;
55112;SDS011;41006;50.920;3.456;2022-07-04T00:28:05;6.25;;;1.40;;
55112;SDS011;41006;50.920;3.456;2022-07-04T00:28:35;5.38;;;1.80;;
55112;SDS011;41006;50.920;3.456;2022-07-04T00:29:10;5.95;;;1.20;;
55112;SDS011;41006;50.920;3.456;2022-07-04T00:29:43;10.50;;;2.60;;
55112;SDS011;41006;50.920;3.456;2022-07-04T00:30:17;4.07;;;1.25;;
55112;SDS011;41006;50.920;3.456;2022-07-04T00:30:49;3.92;;;1.85;;
55112;SDS011;41006;50.920;3.456;2022-07-04T00:31:22;5.38;;;1.60;;
55112;SDS011;41006;50.920;3.456;2022-07-04T00:31:53;6.60;;;1.60;;
55112;SDS011;41006;50.920;3.456;2022-07-04T00:32:25;3.97;;;1.60;;
55112;SDS011;41006;50.920;3.456;2022-07-04T00:32:56;8.02;;;1.67;;
55112;SDS011;41006;50.920;3.456;2022-07-04T00:33:29;8.05;;;1.80;;
55112;SDS011;41006;50.920;3.456;2022-07-04T00:34:02;7.72;;;1.83;;
55112;SDS011;41006;50.920;3.456;2022-07-04T00:34:35;8.70;;;2.03;;
55112;SDS011;41006;50.920;3.456;2022-07-04T00:35:10;6.93;;;1.60;;
55112;SDS011;41006;50.920;3.456;2022-07-04T00:35:41;5.35;;;1.25;;
55112;SDS011;41006;50.920;3.456;2022-07-04T00:36:14;3.88;;;1.48;;
55112;SDS011;41006;50.920;3.456;2022-07-04T00:36:44;5.40;;;1.55;;
55112;SDS011;41006;50.920;3.456;2022-07-04T00:37:15;3.72;;;1.48;;
55112;SDS011;41006;50.920;3.456;2022-07-04T00:37:45;4.03;;;1.60;;
55112;SDS011;41006;50.920;3.456;2022-07-04T00:38:15;6.07;;;1.70;;
55112;SDS011;41006;50.920;3.456;2022-07-04T00:38:49;6.07;;;1.40;;
55112;SDS011;41006;50.920;3.456;2022-07-04T00:39:22;8.63;;;1.75;;
55112;SDS011;41006;50.920;3.456;2022-07-04T00:39:57;4.60;;;1.50;;
55112;SDS011;41006;50.920;3.456;2022-07-04T00:40:28;8.73;;;1.73;;
55112;SDS011;41006;50.920;3.456;2022-07-04T00:40:59;6.28;;;1.55;;
55112;SDS011;41006;50.920;3.456;2022-07-04T00:41:31;5.70;;;2.22;;
55112;SDS011;41006;50.920;3.456;2022-07-04T00:42:05;6.97;;;1.60;;
55112;SDS011;41006;50.920;3.456;2022-07-04T00:42:38;6.60;;;1.58;;
55112;SDS011;41006;50.920;3.456;2022-07-04T00:43:08;5.78;;;1.55;;
55112;SDS011;41006;50.920;3.456;2022-07-04T00:43:41;6.55;;;2.00;;
55112;SDS011;41006;50.920;3.456;2022-07-04T00:44:12;6.75;;;1.98;;
55112;SDS011;41006;50.920;3.456;2022-07-04T00:44:48;4.93;;;1.92;;
55112;SDS011;41006;50.920;3.456;2022-07-04T00:45:20;6.78;;;2.22;;
55112;SDS011;41006;50.920;3.456;2022-07-04T00:45:51;5.53;;;1.30;;
55112;SDS011;41006;50.920;3.456;2022-07-04T00:46:22;5.43;;;1.52;;
55112;SDS011;41006;50.920;3.456;2022-07-04T00:46:55;7.85;;;1.55;;
55112;SDS011;41006;50.920;3.456;2022-07-04T00:47:28;4.25;;;1.17;;
55112;SDS011;41006;50.920;3.456;2022-07-04T00:48:01;4.75;;;1.63;;
55112;SDS011;41006;50.920;3.456;2022-07-04T00:48:34;2.47;;;1.58;;
55112;SDS011;41006;50.920;3.456;2022-07-04T00:49:07;6.82;;;1.65;;
55112;SDS011;41006;50.920;3.456;2022-07-04T00:49:39;5.32;;;1.40;;
55112;SDS011;41006;50.920;3.456;2022-07-04T00:50:10;7.28;;;1.65;;
55112;SDS011;41006;50.920;3.456;2022-07-04T00:50:40;6.05;;;1.65;;
55112;SDS011;41006;50.920;3.456;2022-07-04T00:51:12;2.80;;;1.48;;
55112;SDS011;41006;50.920;3.456;2022-07-04T00:51:45;6.45;;;1.48;;
55112;SDS011;41006;50.920;3.456;2022-07-04T00:52:16;6.82;;;1.70;;
55112;SDS011;41006;50.920;3.456;2022-07-04T00:52:47;4.30;;;1.73;;
55112;SDS011;41006;50.920;3.456;2022-07-04T00:53:21;6.75;;;1.95;;
55112;SDS011;41006;50.920;3.456;2022-07-04T00:53:55;4.20;;;1.52;;
55112;SDS011;41006;50.920;3.456;2022-07-04T00:54:31;7.35;;;2.03;;
55112;SDS011;41006;50.920;3.456;2022-07-04T00:55:07;5.18;;;1.63;;
55112;SDS011;41006;50.920;3.456;2022-07-04T00:55:39;11.25;;;1.98;;
55112;SDS011;41006;50.920;3.456;2022-07-04T00:56:12;7.80;;;1.98;;
55112;SDS011;41006;50.920;3.456;2022-07-04T00:56:43;3.25;;;1.27;;
55112;SDS011;41006;50.920;3.456;2022-07-04T00:57:17;5.57;;;2.20;;
55112;SDS011;41006;50.920;3.456;2022-07-04T00:57:47;5.40;;;1.95;;
55112;SDS011;41006;50.920;3.456;2022-07-04T00:58:21;18.33;;;3.13;;
55112;SDS011;41006;50.920;3.456;2022-07-04T00:58:52;5.10;;;1.88;;
55112;SDS011;41006;50.920;3.456;2022-07-04T00:59:26;6.53;;;2.35;;
55112;SDS011;41006;50.920;3.456;2022-07-04T00:59:57;6.10;;;2.20;;
55112;SDS011;41006;50.920;3.456;2022-07-04T01:00:29;6.57;;;1.90;;
55112;SDS011;41006;50.920;3.456;2022-07-04T01:01:00;7.45;;;2.80;;
55112;SDS011;41006;50.920;3.456;2022-07-04T01:01:30;8.00;;;2.40;;
55112;SDS011;41006;50.920;3.456;2022-07-04T01:02:01;6.68;;;2.40;;
55112;SDS011;41006;50.920;3.456;2022-07-04T01:02:33;6.82;;;2.35;;
55112;SDS011;41006;50.920;3.456;2022-07-04T01:03:04;7.70;;;2.38;;
55112;SDS011;41006;50.920;3.456;2022-07-04T01:03:39;7.07;;;2.30;;
55112;SDS011;41006;50.920;3.456;2022-07-04T01:04:12;4.40;;;1.98;;
55112;SDS011;41006;50.920;3.456;2022-07-04T01:04:44;4.38;;;2.30;;
55112;SDS011;41006;50.920;3.456;2022-07-04T01:05:17;5.68;;;2.45;;
55112;SDS011;41006;50.920;3.456;2022-07-04T01:05:47;6.32;;;1.95;;
55112;SDS011;41006;50.920;3.456;2022-07-04T01:06:20;8.40;;;2.08;;
55112;SDS011;41006;50.920;3.456;2022-07-04T01:06:55;8.40;;;2.78;;
55112;SDS011;41006;50.920;3.456;2022-07-04T01:07:28;11.13;;;2.75;;
55112;SDS011;41006;50.920;3.456;2022-07-04T01:07:59;2.22;;;1.73;;
55112;SDS011;41006;50.920;3.456;2022-07-04T01:08:38;4.30;;;2.35;;
55112;SDS011;41006;50.920;3.456;2022-07-04T01:09:11;5.03;;;2.13;;
55112;SDS011;41006;50.920;3.456;2022-07-04T01:09:42;6.70;;;1.80;;
55112;SDS011;41006;50.920;3.456;2022-07-04T01:10:16;3.13;;;2.08;;
55112;SDS011;41006;50.920;3.456;2022-07-04T01:10:47;7.47;;;2.13;;
55112;SDS011;41006;50.920;3.456;2022-07-04T01:11:19;6.95;;;2.10;;
55112;SDS011;41006;50.920;3.456;2022-07-04T01:11:50;7.53;;;2.70;;
55112;SDS011;41006;50.920;3.456;2022-07-04T01:12:29;5.82;;;2.33;;
55112;SDS011;41006;50.920;3.456;2022-07-04T01:13:00;4.82;;;2.38;;
55112;SDS011;41006;50.920;3.456;2022-07-04T01:13:36;5.47;;;2.33;;
55112;SDS011;41006;50.920;3.456;2022-07-04T01:14:08;6.63;;;3.00;;
55112;SDS011;41006;50.920;3.456;2022-07-04T01:14:39;7.30;;;3.40;;
55112;SDS011;41006;50.920;3.456;2022-07-04T01:15:09;6.30;;;2.58;;
55112;SDS011;41006;50.920;3.456;2022-07-04T01:15:40;9.02;;;2.30;;
55112;SDS011;41006;50.920;3.456;2022-07-04T01:16:12;7.88;;;2.42;;
55112;SDS011;41006;50.920;3.456;2022-07-04T01:16:43;8.43;;;2.28;;
55112;SDS011;41006;50.920;3.456;2022-07-04T01:17:13;4.88;;;2.55;;
55112;SDS011;41006;50.920;3.456;2022-07-04T01:17:46;5.78;;;2.95;;
55112;SDS011;41006;50.920;3.456;2022-07-04T01:18:17;4.43;;;2.03;;
55112;SDS011;41006;50.920;3.456;2022-07-04T01:18:47;7.25;;;3.05;;
55112;SDS011;41006;50.920;3.456;2022-07-04T01:19:17;8.05;;;2.40;;
55112;SDS011;41006;50.920;3.456;2022-07-04T01:19:48;5.03;;;2.38;;
55112;SDS011;41006;50.920;3.456;2022-07-04T01:20:21;6.75;;;2.65;;
55112;SDS011;41006;50.920;3.456;2022-07-04T01:20:57;7.35;;;2.10;;
55112;SDS011;41006;50.920;3.456;2022-07-04T01:21:29;7.05;;;2.30;;
55112;SDS011;41006;50.920;3.456;2022-07-04T01:22:05;6.10;;;2.45;;
55112;SDS011;41006;50.920;3.456;2022-07-04T01:22:36;5.93;;;2.45;;
55112;SDS011;41006;50.920;3.456;2022-07-04T01:23:07;7.32;;;2.30;;
55112;SDS011;41006;50.920;3.456;2022-07-04T01:23:40;10.52;;;2.65;;
55112;SDS011;41006;50.920;3.456;2022-07-04T01:24:13;3.95;;;2.40;;
55112;SDS011;41006;50.920;3.456;2022-07-04T01:24:49;6.78;;;2.83;;
55112;SDS011;41006;50.920;3.456;2022-07-04T01:25:20;8.77;;;2.17;;
55112;SDS011;41006;50.920;3.456;2022-07-04T01:25:53;6.63;;;2.40;;
55112;SDS011;41006;50.920;3.456;2022-07-04T01:26:27;7.15;;;2.25;;
55112;SDS011;41006;50.920;3.456;2022-07-04T01:26:59;5.22;;;2.22;;
55112;SDS011;41006;50.920;3.456;2022-07-04T01:27:30;8.75;;;2.35;;
55112;SDS011;41006;50.920;3.456;2022-07-04T01:28:02;7.82;;;2.40;;
55112;SDS011;41006;50.920;3.456;2022-07-04T01:28:39;5.50;;;1.85;;
55112;SDS011;41006;50.920;3.456;2022-07-04T01:29:13;4.05;;;2.33;;
55112;SDS011;41006;50.920;3.456;2022-07-04T01:29:47;5.57;;;2.60;;
55112;SDS011;41006;50.920;3.456;2022-07-04T01:30:20;10.02;;;2.78;;
55112;SDS011;41006;50.920;3.456;2022-07-04T01:30:51;9.23;;;2.50;;
55112;SDS011;41006;50.920;3.456;2022-07-04T01:31:24;7.22;;;2.75;;
55112;SDS011;41006;50.920;3.456;2022-07-04T01:31:57;8.77;;;2.65;;
55112;SDS011;41006;50.920;3.456;2022-07-04T01:32:35;6.63;;;2.50;;
55112;SDS011;41006;50.920;3.456;2022-07-04T01:33:10;5.35;;;2.10;;
55112;SDS011;41006;50.920;3.456;2022-07-04T01:33:44;4.47;;;2.08;;
55112;SDS011;41006;50.920;3.456;2022-07-04T01:34:17;6.03;;;2.05;;
55112;SDS011;41006;50.920;3.456;2022-07-04T01:34:47;5.43;;;3.17;;
55112;SDS011;41006;50.920;3.456;2022-07-04T01:35:20;10.57;;;2.88;;
55112;SDS011;41006;50.920;3.456;2022-07-04T01:35:53;8.73;;;2.45;;
55112;SDS011;41006;50.920;3.456;2022-07-04T01:36:28;11.35;;;3.00;;
55112;SDS011;41006;50.920;3.456;2022-07-04T01:37:00;3.72;;;2.20;;
55112;SDS011;41006;50.920;3.456;2022-07-04T01:37:33;8.07;;;2.15;;
55112;SDS011;41006;50.920;3.456;2022-07-04T01:38:06;8.00;;;2.45;;
55112;SDS011;41006;50.920;3.456;2022-07-04T01:38:39;6.18;;;2.25;;
55112;SDS011;41006;50.920;3.456;2022-07-04T01:39:15;5.68;;;2.08;;
55112;SDS011;41006;50.920;3.456;2022-07-04T01:39:48;5.90;;;2.42;;
55112;SDS011;41006;50.920;3.456;2022-07-04T01:40:20;8.13;;;2.80;;
55112;SDS011;41006;50.920;3.456;2022-07-04T01:40:53;7.32;;;2.80;;
55112;SDS011;41006;50.920;3.456;2022-07-04T01:41:26;6.22;;;2.78;;
55112;SDS011;41006;50.920;3.456;2022-07-04T01:41:58;7.85;;;2.83;;
55112;SDS011;41006;50.920;3.456;2022-07-04T01:42:29;6.20;;;2.72;;
55112;SDS011;41006;50.920;3.456;2022-07-04T01:43:04;10.27;;;3.50;;
55112;SDS011;41006;50.920;3.456;2022-07-04T01:43:40;8.73;;;2.83;;
55112;SDS011;41006;50.920;3.456;2022-07-04T01:44:15;6.70;;;3.05;;
55112;SDS011;41006;50.920;3.456;2022-07-04T01:44:48;6.55;;;2.45;;
55112;SDS011;41006;50.920;3.456;2022-07-04T01:45:21;7.68;;;1.88;;
55112;SDS011;41006;50.920;3.456;2022-07-04T01:45:56;8.85;;;2.72;;
55112;SDS011;41006;50.920;3.456;2022-07-04T01:46:26;6.47;;;2.05;;
55112;SDS011;41006;50.920;3.456;2022-07-04T01:46:56;8.32;;;2.55;;
55112;SDS011;41006;50.920;3.456;2022-07-04T01:47:30;7.40;;;2.45;;
55112;SDS011;41006;50.920;3.456;2022-07-04T01:48:01;6.35;;;2.75;;
55112;SDS011;41006;50.920;3.456;2022-07-04T01:48:31;10.63;;;3.13;;
55112;SDS011;41006;50.920;3.456;2022-07-04T01:49:05;5.78;;;2.33;;
55112;SDS011;41006;50.920;3.456;2022-07-04T01:49:35;4.65;;;2.22;;
55112;SDS011;41006;50.920;3.456;2022-07-04T01:50:07;5.80;;;2.67;;
55112;SDS011;41006;50.920;3.456;2022-07-04T01:50:46;13.52;;;2.70;;
55112;SDS011;41006;50.920;3.456;2022-07-04T01:51:17;9.50;;;2.90;;
55112;SDS011;41006;50.920;3.456;2022-07-04T01:51:52;7.50;;;2.40;;
55112;SDS011;41006;50.920;3.456;2022-07-04T01:52:23;8.15;;;3.10;;
55112;SDS011;41006;50.920;3.456;2022-07-04T01:52:56;7.80;;;2.17;;
55112;SDS011;41006;50.920;3.456;2022-07-04T01:53:26;8.45;;;2.90;;
55112;SDS011;41006;50.920;3.456;2022-07-04T01:54:01;6.32;;;2.47;;
55112;SDS011;41006;50.920;3.456;2022-07-04T01:54:33;7.80;;;2.28;;
55112;SDS011;41006;50.920;3.456;2022-07-04T01:55:12;7.88;;;2.50;;
55112;SDS011;41006;50.920;3.456;2022-07-04T01:55:47;6.53;;;2.80;;
55112;SDS011;41006;50.920;3.456;2022-07-04T01:56:19;5.82;;;2.53;;
55112;SDS011;41006;50.920;3.456;2022-07-04T01:56:52;7.70;;;2.45;;
55112;SDS011;41006;50.920;3.456;2022-07-04T01:57:24;10.20;;;2.72;;
55112;SDS011;41006;50.920;3.456;2022-07-04T01:57:55;6.22;;;2.20;;
55112;SDS011;41006;50.920;3.456;2022-07-04T01:58:30;5.88;;;2.08;;
55112;SDS011;41006;50.920;3.456;2022-07-04T01:59:01;10.32;;;2.38;;
55112;SDS011;41006;50.920;3.456;2022-07-04T01:59:34;9.80;;;1.70;;
55112;SDS011;41006;50.920;3.456;2022-07-04T02:00:22;6.55;;;1.95;;
55112;SDS011;41006;50.920;3.456;2022-07-04T02:01:12;5.35;;;2.30;;
55112;SDS011;41006;50.920;3.456;2022-07-04T02:02:00;6.38;;;3.30;;
55112;SDS011;41006;50.920;3.456;2022-07-04T02:02:33;5.07;;;2.22;;
55112;SDS011;41006;50.920;3.456;2022-07-04T02:03:05;7.13;;;2.88;;
55112;SDS011;41006;50.920;3.456;2022-07-04T02:03:41;10.65;;;2.65;;
55112;SDS011;41006;50.920;3.456;2022-07-04T02:04:11;8.50;;;2.53;;
55112;SDS011;41006;50.920;3.456;2022-07-04T02:04:44;8.40;;;2.33;;
55112;SDS011;41006;50.920;3.456;2022-07-04T02:05:19;8.00;;;2.20;;
55112;SDS011;41006;50.920;3.456;2022-07-04T02:05:54;8.07;;;2.30;;
55112;SDS011;41006;50.920;3.456;2022-07-04T02:06:27;6.85;;;2.88;;
55112;SDS011;41006;50.920;3.456;2022-07-04T02:06:59;4.78;;;1.98;;
55112;SDS011;41006;50.920;3.456;2022-07-04T02:07:32;5.57;;;2.88;;
55112;SDS011;41006;50.920;3.456;2022-07-04T02:08:03;7.70;;;2.58;;
55112;SDS011;41006;50.920;3.456;2022-07-04T02:08:36;7.50;;;2.10;;
55112;SDS011;41006;50.920;3.456;2022-07-04T02:09:27;5.15;;;2.30;;
55112;SDS011;41006;50.920;3.456;2022-07-04T02:09:58;7.72;;;2.70;;
55112;SDS011;41006;50.920;3.456;2022-07-04T02:10:28;5.85;;;1.98;;
55112;SDS011;41006;50.920;3.456;2022-07-04T02:11:01;6.53;;;2.72;;
55112;SDS011;41006;50.920;3.456;2022-07-04T02:11:34;7.03;;;2.65;;
55112;SDS011;41006;50.920;3.456;2022-07-04T02:12:23;4.45;;;2.00;;
55112;SDS011;41006;50.920;3.456;2022-07-04T02:13:12;6.78;;;2.65;;
55112;SDS011;41006;50.920;3.456;2022-07-04T02:13:49;6.00;;;2.72;;
55112;SDS011;41006;50.920;3.456;2022-07-04T02:14:20;4.05;;;2.25;;
55112;SDS011;41006;50.920;3.456;2022-07-04T02:14:50;6.47;;;2.47;;
55112;SDS011;41006;50.920;3.456;2022-07-04T02:15:21;7.50;;;2.70;;
55112;SDS011;41006;50.920;3.456;2022-07-04T02:15:56;5.50;;;2.40;;
55112;SDS011;41006;50.920;3.456;2022-07-04T02:16:27;4.13;;;1.65;;
55112;SDS011;41006;50.920;3.456;2022-07-04T02:16:57;5.07;;;2.60;;
55112;SDS011;41006;50.920;3.456;2022-07-04T02:17:30;6.00;;;2.20;;
55112;SDS011;41006;50.920;3.456;2022-07-04T02:18:01;5.40;;;2.53;;
55112;SDS011;41006;50.920;3.456;2022-07-04T02:18:32;4.82;;;1.80;;
55112;SDS011;41006;50.920;3.456;2022-07-04T02:19:05;5.07;;;2.05;;
55112;SDS011;41006;50.920;3.456;2022-07-04T02:19:38;8.18;;;2.20;;
55112;SDS011;41006;50.920;3.456;2022-07-04T02:20:08;7.07;;;2.30;;
55112;SDS011;41006;50.920;3.456;2022-07-04T02:20:39;6.65;;;1.73;;
55112;SDS011;41006;50.920;3.456;2022-07-04T02:21:09;9.32;;;2.22;;
55112;SDS011;41006;50.920;3.456;2022-07-04T02:21:43;7.82;;;2.50;;
55112;SDS011;41006;50.920;3.456;2022-07-04T02:22:18;6.38;;;2.00;;
55112;SDS011;41006;50.920;3.456;2022-07-04T02:22:54;7.57;;;1.95;;
55112;SDS011;41006;50.920;3.456;2022-07-04T02:23:27;14.20;;;2.28;;
55112;SDS011;41006;50.920;3.456;2022-07-04T02:24:00;5.40;;;1.75;;
55112;SDS011;41006;50.920;3.456;2022-07-04T02:24:33;5.50;;;1.88;;
55112;SDS011;41006;50.920;3.456;2022-07-04T02:25:06;5.82;;;1.83;;
55112;SDS011;41006;50.920;3.456;2022-07-04T02:25:41;3.85;;;1.67;;
55112;SDS011;41006;50.920;3.456;2022-07-04T02:26:14;3.00;;;1.77;;
55112;SDS011;41006;50.920;3.456;2022-07-04T02:26:45;8.10;;;2.25;;
55112;SDS011;41006;50.920;3.456;2022-07-04T02:27:15;5.60;;;2.10;;
55112;SDS011;41006;50.920;3.456;2022-07-04T02:27:48;7.32;;;2.42;;
55112;SDS011;41006;50.920;3.456;2022-07-04T02:28:21;5.85;;;1.98;;
55112;SDS011;41006;50.920;3.456;2022-07-04T02:28:53;4.07;;;1.67;;
55112;SDS011;41006;50.920;3.456;2022-07-04T02:29:24;3.38;;;1.70;;
55112;SDS011;41006;50.920;3.456;2022-07-04T02:29:56;5.88;;;1.98;;
55112;SDS011;41006;50.920;3.456;2022-07-04T02:30:30;4.22;;;1.95;;
55112;SDS011;41006;50.920;3.456;2022-07-04T02:31:02;5.75;;;2.13;;
55112;SDS011;41006;50.920;3.456;2022-07-04T02:31:36;3.50;;;1.77;;
55112;SDS011;41006;50.920;3.456;2022-07-04T02:32:09;10.65;;;3.10;;
55112;SDS011;41006;50.920;3.456;2022-07-04T02:32:40;7.47;;;2.08;;
55112;SDS011;41006;50.920;3.456;2022-07-04T02:33:10;4.28;;;2.03;;
55112;SDS011;41006;50.920;3.456;2022-07-04T02:33:41;8.63;;;2.08;;
55112;SDS011;41006;50.920;3.456;2022-07-04T02:34:13;6.45;;;2.60;;
55112;SDS011;41006;50.920;3.456;2022-07-04T02:34:44;9.85;;;2.33;;
55112;SDS011;41006;50.920;3.456;2022-07-04T02:35:19;7.55;;;2.30;;
55112;SDS011;41006;50.920;3.456;2022-07-04T02:35:50;6.32;;;2.35;;
55112;SDS011;41006;50.920;3.456;2022-07-04T02:36:24;6.22;;;2.15;;
55112;SDS011;41006;50.920;3.456;2022-07-04T02:36:58;6.00;;;2.55;;
55112;SDS011;41006;50.920;3.456;2022-07-04T02:37:30;10.90;;;2.92;;
55112;SDS011;41006;50.920;3.456;2022-07-04T02:38:03;8.70;;;2.47;;
55112;SDS011;41006;50.920;3.456;2022-07-04T02:38:36;6.13;;;2.45;;
55112;SDS011;41006;50.920;3.456;2022-07-04T02:39:06;6.15;;;2.53;;
55112;SDS011;41006;50.920;3.456;2022-07-04T02:39:42;4.63;;;1.60;;
55112;SDS011;41006;50.920;3.456;2022-07-04T02:40:15;8.10;;;2.58;;
55112;SDS011;41006;50.920;3.456;2022-07-04T02:40:48;7.43;;;2.80;;
55112;SDS011;41006;50.920;3.456;2022-07-04T02:41:21;8.65;;;2.50;;
55112;SDS011;41006;50.920;3.456;2022-07-04T02:41:56;5.57;;;2.15;;
55112;SDS011;41006;50.920;3.456;2022-07-04T02:42:30;4.80;;;2.38;;
55112;SDS011;41006;50.920;3.456;2022-07-04T02:43:01;6.43;;;2.38;;
55112;SDS011;41006;50.920;3.456;2022-07-04T02:43:32;8.43;;;2.30;;
55112;SDS011;41006;50.920;3.456;2022-07-04T02:44:04;5.15;;;2.83;;
55112;SDS011;41006;50.920;3.456;2022-07-04T02:44:39;9.15;;;3.47;;
55112;SDS011;41006;50.920;3.456;2022-07-04T02:45:13;7.57;;;2.83;;
55112;SDS011;41006;50.920;3.456;2022-07-04T02:45:51;7.38;;;2.67;;
55112;SDS011;41006;50.920;3.456;2022-07-04T02:46:24;11.32;;;3.03;;
55112;SDS011;41006;50.920;3.456;2022-07-04T02:46:55;6.88;;;3.00;;
55112;SDS011;41006;50.920;3.456;2022-07-04T02:47:28;8.25;;;2.88;;
55112;SDS011;41006;50.920;3.456;2022-07-04T02:47:59;8.43;;;3.05;;
55112;SDS011;41006;50.920;3.456;2022-07-04T02:48:32;7.25;;;3.72;;
55112;SDS011;41006;50.920;3.456;2022-07-04T02:49:02;6.13;;;3.10;;
55112;SDS011;41006;50.920;3.456;2022-07-04T02:49:33;10.13;;;3.70;;
55112;SDS011;41006;50.920;3.456;2022-07-04T02:50:06;10.50;;;3.80;;
55112;SDS011;41006;50.920;3.456;2022-07-04T02:50:38;9.90;;;3.83;;
55112;SDS011;41006;50.920;3.456;2022-07-04T02:51:09;6.40;;;3.03;;
55112;SDS011;41006;50.920;3.456;2022-07-04T02:51:41;8.25;;;4.10;;
55112;SDS011;41006;50.920;3.456;2022-07-04T02:52:12;7.60;;;3.67;;
55112;SDS011;41006;50.920;3.456;2022-07-04T02:52:45;7.78;;;3.50;;
55112;SDS011;41006;50.920;3.456;2022-07-04T02:53:20;11.10;;;3.80;;
55112;SDS011;41006;50.920;3.456;2022-07-04T02:53:50;6.80;;;3.47;;
55112;SDS011;41006;50.920;3.456;2022-07-04T02:54:23;10.63;;;4.55;;
55112;SDS011;41006;50.920;3.456;2022-07-04T02:54:53;7.05;;;3.33;;
55112;SDS011;41006;50.920;3.456;2022-07-04T02:55:29;9.15;;;3.80;;
55112;SDS011;41006;50.920;3.456;2022-07-04T02:56:07;10.55;;;3.65;;
55112;SDS011;41006;50.920;3.456;2022-07-04T02:56:40;10.98;;;3.70;;
55112;SDS011;41006;50.920;3.456;2022-07-04T02:57:13;8.68;;;4.40;;
55112;SDS011;41006;50.920;3.456;2022-07-04T02:57:43;8.20;;;4.35;;
55112;SDS011;41006;50.920;3.456;2022-07-04T02:58:16;9.38;;;4.30;;
55112;SDS011;41006;50.920;3.456;2022-07-04T02:58:46;12.52;;;4.18;;
55112;SDS011;41006;50.920;3.456;2022-07-04T02:59:16;8.63;;;4.05;;
55112;SDS011;41006;50.920;3.456;2022-07-04T02:59:49;7.68;;;4.13;;
55112;SDS011;41006;50.920;3.456;2022-07-04T03:00:20;8.95;;;4.22;;
55112;SDS011;41006;50.920;3.456;2022-07-04T03:00:56;9.35;;;4.00;;
55112;SDS011;41006;50.920;3.456;2022-07-04T03:01:31;7.15;;;4.10;;
55112;SDS011;41006;50.920;3.456;2022-07-04T03:02:02;14.68;;;4.38;;
55112;SDS011;41006;50.920;3.456;2022-07-04T03:02:34;9.23;;;4.18;;
55112;SDS011;41006;50.920;3.456;2022-07-04T03:03:05;9.65;;;4.70;;
55112;SDS011;41006;50.920;3.456;2022-07-04T03:03:36;7.97;;;4.03;;
55112;SDS011;41006;50.920;3.456;2022-07-04T03:04:09;8.85;;;4.13;;
55112;SDS011;41006;50.920;3.456;2022-07-04T03:04:49;12.40;;;4.10;;
55112;SDS011;41006;50.920;3.456;2022-07-04T03:05:20;7.03;;;3.85;;
55112;SDS011;41006;50.920;3.456;2022-07-04T03:05:50;9.93;;;4.20;;
55112;SDS011;41006;50.920;3.456;2022-07-04T03:06:21;9.95;;;4.10;;
55112;SDS011;41006;50.920;3.456;2022-07-04T03:06:54;8.40;;;4.43;;
55112;SDS011;41006;50.920;3.456;2022-07-04T03:07:25;8.95;;;4.05;;
55112;SDS011;41006;50.920;3.456;2022-07-04T03:07:55;8.57;;;3.90;;
55112;SDS011;41006;50.920;3.456;2022-07-04T03:08:25;9.88;;;4.07;;
55112;SDS011;41006;50.920;3.456;2022-07-04T03:08:56;8.38;;;3.92;;
55112;SDS011;41006;50.920;3.456;2022-07-04T03:09:26;7.30;;;4.10;;
55112;SDS011;41006;50.920;3.456;2022-07-04T03:09:59;8.75;;;3.83;;
55112;SDS011;41006;50.920;3.456;2022-07-04T03:10:33;13.15;;;4.45;;
55112;SDS011;41006;50.920;3.456;2022-07-04T03:11:03;10.52;;;4.20;;
55112;SDS011;41006;50.920;3.456;2022-07-04T03:11:35;8.43;;;4.85;;
55112;SDS011;41006;50.920;3.456;2022-07-04T03:12:08;14.20;;;5.18;;
55112;SDS011;41006;50.920;3.456;2022-07-04T03:12:39;11.32;;;4.32;;
55112;SDS011;41006;50.920;3.456;2022-07-04T03:13:11;14.57;;;4.68;;
55112;SDS011;41006;50.920;3.456;2022-07-04T03:13:44;14.13;;;4.45;;
55112;SDS011;41006;50.920;3.456;2022-07-04T03:14:17;12.77;;;4.68;;
55112;SDS011;41006;50.920;3.456;2022-07-04T03:14:47;11.02;;;4.88;;
55112;SDS011;41006;50.920;3.456;2022-07-04T03:15:23;11.82;;;4.68;;
55112;SDS011;41006;50.920;3.456;2022-07-04T03:15:54;8.63;;;4.57;;
55112;SDS011;41006;50.920;3.456;2022-07-04T03:16:25;10.88;;;5.07;;
55112;SDS011;41006;50.920;3.456;2022-07-04T03:16:58;11.95;;;5.43;;
55112;SDS011;41006;50.920;3.456;2022-07-04T03:17:29;10.35;;;4.53;;